Time;durP1;ratioP1;P1;durP2;ratioP2;P2;SDS_P1;SDS_P2;PMS_P1;PMS_P2;Temp;Humidity;BMP_temperature;BMP_pressure;BME280_temperature;BME280_humidity;BME280_pressure;Samples;Min_cycle;Max_cycle;Signal;HPM_P1;HPM_P2
2022/05/05 00:01:47;;;;;;;6.20;3.55;;;;;;;9.18;56.22;101617.61;1748650;81;27482;-56
2022/05/05 00:04:13;;;;;;;14.65;4.37;;;;;;;9.15;56.63;101611.95;1743231;81;26166;-57
2022/05/05 00:06:41;;;;;;;12.07;3.30;;;;;;;9.13;56.35;101618.39;1743793;81;25760;-58
2022/05/05 00:09:08;;;;;;;16.60;5.80;;;;;;;9.11;56.59;101614.48;1748849;82;26703;-57
2022/05/05 00:14:24;;;;;;;13.35;3.75;;;;;;;9.12;58.58;101623.37;1741049;82;29505;-57
2022/05/05 00:17:09;;;;;;;6.33;3.30;;;;;;;9.10;57.75;101619.47;1740812;82;43176;-57
2022/05/05 00:19:41;;;;;;;14.95;3.50;;;;;;;9.12;58.34;101624.26;1740861;82;25683;-57
2022/05/05 00:22:10;;;;;;;9.03;2.83;;;;;;;9.11;58.52;101625.69;1740802;81;25806;-57
2022/05/05 00:24:38;;;;;;;8.78;3.52;;;;;;;9.06;58.93;101638.08;1741247;81;25820;-58
2022/05/05 00:27:07;;;;;;;10.93;4.10;;;;;;;9.08;59.80;101639.72;1740934;81;27517;-57
2022/05/05 00:29:34;;;;;;;9.40;3.47;;;;;;;9.02;58.72;101639.27;1741019;82;25674;-56
2022/05/05 00:32:02;;;;;;;9.05;3.90;;;;;;;9.00;58.60;101635.36;1748691;80;25797;-56
2022/05/05 00:34:29;;;;;;;12.60;3.60;;;;;;;9.02;58.76;101641.95;1781194;80;26562;-58
2022/05/05 00:36:56;;;;;;;9.93;3.17;;;;;;;9.03;59.09;101645.86;1780884;80;25767;-57
2022/05/05 00:39:23;;;;;;;12.78;3.77;;;;;;;8.99;59.21;101640.34;1780897;79;27433;-58
2022/05/05 00:41:51;;;;;;;15.10;4.17;;;;;;;8.98;58.83;101645.33;1780525;80;27352;-58
2022/05/05 00:44:18;;;;;;;10.98;3.92;;;;;;;9.00;59.17;101648.78;1781185;80;25823;-58
2022/05/05 00:46:50;;;;;;;7.45;2.92;;;;;;;8.98;58.79;101648.02;1780868;80;25785;-59
2022/05/05 00:49:18;;;;;;;16.70;8.58;;;;;;;8.88;58.95;101648.25;1781183;79;25872;-58
2022/05/05 00:51:46;;;;;;;9.40;4.20;;;;;;;8.81;58.69;101649.14;1780955;79;27472;-58
2022/05/05 00:54:14;;;;;;;11.43;3.37;;;;;;;8.74;58.54;101648.69;1780741;80;25974;-58
2022/05/05 00:56:45;;;;;;;9.55;3.80;;;;;;;8.67;58.77;101652.75;1780808;80;25703;-58
2022/05/05 00:59:12;;;;;;;8.80;3.55;;;;;;;8.63;58.76;101654.39;1781020;80;25740;-58
2022/05/05 01:01:40;;;;;;;14.25;4.17;;;;;;;8.59;58.52;101653.73;1764250;80;25750;-57
2022/05/05 01:04:07;;;;;;;12.13;4.30;;;;;;;8.57;58.88;101663.70;1743048;82;28449;-57
2022/05/05 01:06:34;;;;;;;8.00;3.65;;;;;;;8.54;59.16;101659.90;1742528;82;25816;-57
2022/05/05 01:09:05;;;;;;;12.98;3.70;;;;;;;8.52;58.83;101661.81;1740996;82;25784;-57
2022/05/05 01:11:32;;;;;;;10.08;3.40;;;;;;;8.49;58.85;101666.03;1735316;81;25795;-58
2022/05/05 01:13:59;;;;;;;14.60;3.80;;;;;;;8.40;59.02;101668.32;1723549;82;27354;-58
2022/05/05 01:16:26;;;;;;;10.18;3.45;;;;;;;8.34;59.74;101671.41;1723390;82;27681;-58
2022/05/05 01:18:55;;;;;;;12.73;3.62;;;;;;;8.27;59.20;101666.07;1723267;82;25743;-58
2022/05/05 01:21:23;;;;;;;10.38;3.77;;;;;;;8.21;59.31;101670.47;1723406;82;25709;-58
2022/05/05 01:23:50;;;;;;;7.00;3.60;;;;;;;8.17;59.48;101675.66;1723398;82;25824;-58
2022/05/05 01:29:10;;;;;;;9.70;3.87;;;;;;;8.06;59.55;101682.56;1723436;83;27412;-57
2022/05/05 01:31:34;;;;;;;10.70;3.83;;;;;;;7.97;60.00;101677.33;1722466;83;25856;-57
2022/05/05 01:34:01;;;;;;;10.80;3.72;;;;;;;7.90;60.24;101686.67;1723324;82;25832;-57
2022/05/05 01:36:28;;;;;;;6.78;3.90;;;;;;;7.84;60.56;101683.05;1722894;83;26560;-57
2022/05/05 01:38:55;;;;;;;12.35;3.77;;;;;;;7.81;60.43;101689.47;1723362;83;25950;-56
2022/05/05 01:41:22;;;;;;;7.85;3.80;;;;;;;7.75;61.05;101691.66;1723291;83;27501;-56
2022/05/05 01:43:49;;;;;;;6.25;3.50;;;;;;;7.74;61.10;101688.14;1723402;81;25901;-57
2022/05/05 01:46:16;;;;;;;12.28;3.92;;;;;;;7.77;62.10;101689.76;1723113;83;25813;-58
2022/05/05 01:48:43;;;;;;;5.85;3.72;;;;;;;7.72;61.74;101694.52;1723206;83;25780;-58
2022/05/05 01:51:10;;;;;;;9.00;3.35;;;;;;;7.68;62.06;101693.85;1716722;83;27272;-57
2022/05/05 01:53:37;;;;;;;4.92;2.75;;;;;;;7.72;62.03;101694.06;1715740;83;28240;-57
2022/05/05 01:56:13;;;;;;;6.67;3.77;;;;;;;7.73;62.18;101693.11;1715625;83;25749;-57
2022/05/05 01:58:42;;;;;;;4.92;2.85;;;;;;;7.73;62.36;101696.25;1715653;83;25685;-57
2022/05/05 02:01:11;;;;;;;5.30;3.00;;;;;;;7.75;62.37;101697.02;1717644;83;27123;-57
2022/05/05 02:03:38;;;;;;;10.15;3.15;;;;;;;7.78;62.75;101708.41;1723805;83;25801;-58
2022/05/05 02:06:07;;;;;;;8.43;3.50;;;;;;;7.74;63.11;101715.38;1723685;83;27336;-56
2022/05/05 02:08:33;;;;;;;6.80;3.65;;;;;;;7.72;62.82;101713.27;1723438;83;26189;-58
2022/05/05 02:11:00;;;;;;;8.78;3.52;;;;;;;7.72;62.96;101711.47;1723344;83;25780;-57
2022/05/05 02:13:27;;;;;;;6.00;3.15;;;;;;;7.78;63.08;101714.25;1723373;82;26436;-57
2022/05/05 02:15:54;;;;;;;5.62;3.02;;;;;;;7.71;62.91;101717.78;1723643;82;25701;-58
2022/05/05 02:18:21;;;;;;;8.30;3.85;;;;;;;7.70;62.93;101716.55;1723236;83;27522;-57
2022/05/05 02:20:48;;;;;;;8.25;3.55;;;;;;;7.66;62.66;101719.40;1723351;83;25499;-58
2022/05/05 02:23:15;;;;;;;12.50;3.67;;;;;;;7.64;62.38;101723.13;1723688;82;25803;-58
2022/05/05 02:25:42;;;;;;;7.22;3.55;;;;;;;7.63;62.39;101725.42;1701157;83;26019;-58
2022/05/05 02:28:09;;;;;;;7.72;4.03;;;;;;;7.56;62.36;101731.63;1723486;82;25737;-58
2022/05/05 02:30:36;;;;;;;9.25;3.98;;;;;;;7.47;62.59;101729.04;1730488;82;27644;-58
2022/05/05 02:33:03;;;;;;;9.83;3.62;;;;;;;7.39;62.31;101725.09;1730671;82;25464;-58
2022/05/05 02:35:30;;;;;;;8.88;3.70;;;;;;;7.30;62.55;101730.03;1723697;83;25755;-58
2022/05/05 02:40:43;;;;;;;7.55;3.45;;;;;;;7.12;62.39;101736.02;1723833;83;25717;-56
2022/05/05 02:43:10;;;;;;;8.53;4.50;;;;;;;7.05;62.46;101745.33;1724252;83;27605;-57
2022/05/05 02:45:36;;;;;;;7.62;3.50;;;;;;;6.98;62.32;101749.31;1723752;83;25704;-56
2022/05/05 02:48:05;;;;;;;13.88;5.15;;;;;;;6.92;62.66;101748.34;1723796;83;25757;-58
2022/05/05 02:50:32;;;;;;;11.73;4.50;;;;;;;6.87;62.55;101752.13;1723644;81;26528;-62
2022/05/05 02:52:59;;;;;;;8.33;4.67;;;;;;;6.86;62.49;101755.75;1723983;81;25780;-57
2022/05/05 02:55:27;;;;;;;7.28;3.98;;;;;;;6.80;62.78;101756.11;1723835;81;27582;-57
2022/05/05 02:57:53;;;;;;;13.25;4.40;;;;;;;6.75;62.93;101756.86;1723530;83;26383;-56
2022/05/05 03:00:20;;;;;;;11.75;4.72;;;;;;;6.72;63.37;101755.20;1723681;83;25792;-57
2022/05/05 03:02:47;;;;;;;11.03;4.72;;;;;;;6.70;62.96;101756.24;1723492;83;25858;-58
2022/05/05 03:05:15;;;;;;;10.68;4.10;;;;;;;6.69;62.96;101763.88;1723575;81;25709;-57
2022/05/05 03:07:43;;;;;;;12.10;4.30;;;;;;;6.67;62.92;101767.13;1723851;82;27396;-57
2022/05/05 03:10:12;;;;;;;11.38;3.92;;;;;;;6.65;63.22;101768.53;1723391;82;25949;-57
2022/05/05 03:12:38;;;;;;;7.65;4.47;;;;;;;6.66;63.78;101770.75;1723196;79;25796;-58
2022/05/05 03:15:07;;;;;;;10.58;3.90;;;;;;;6.66;64.10;101768.92;1723314;82;25880;-58
2022/05/05 03:17:35;;;;;;;9.80;4.40;;;;;;;6.72;64.14;101773.92;1723485;83;25725;-58
2022/05/05 03:20:05;;;;;;;8.33;3.95;;;;;;;6.80;64.40;101771.31;1723421;83;28469;-57
2022/05/05 03:22:32;;;;;;;10.75;4.22;;;;;;;6.85;64.20;101786.16;1723492;83;25713;-57
2022/05/05 03:24:59;;;;;;;7.03;4.22;;;;;;;6.92;64.53;101777.77;1723449;82;25784;-57
2022/05/05 03:27:26;;;;;;;18.23;4.50;;;;;;;6.97;65.11;101780.57;1723502;82;25827;-56
2022/05/05 03:29:53;;;;;;;9.43;3.45;;;;;;;7.00;64.74;101776.36;1723803;83;25700;-56
2022/05/05 03:32:19;;;;;;;16.40;4.33;;;;;;;7.04;64.73;101777.92;1723372;81;27463;-56
2022/05/05 03:34:46;;;;;;;10.55;3.72;;;;;;;7.13;64.79;101780.53;1723965;83;25697;-57
2022/05/05 03:37:13;;;;;;;11.93;3.58;;;;;;;7.20;64.96;101785.05;1723749;83;25673;-56
2022/05/05 03:39:40;;;;;;;8.45;3.67;;;;;;;7.26;64.98;101783.84;1723680;82;25840;-57
2022/05/05 03:42:08;;;;;;;11.68;3.58;;;;;;;7.28;64.62;101791.31;1723831;81;25832;-57
2022/05/05 03:44:34;;;;;;;12.80;4.35;;;;;;;7.36;65.03;101794.40;1723633;81;27482;-58
2022/05/05 03:47:01;;;;;;;9.48;4.17;;;;;;;7.42;64.84;101787.34;1723220;83;25816;-57
2022/05/05 03:49:28;;;;;;;6.28;3.33;;;;;;;7.46;64.58;101791.56;1723362;81;25461;-57
2022/05/05 03:51:56;;;;;;;14.95;4.97;;;;;;;7.50;64.60;101794.43;1723432;83;25830;-58
2022/05/05 03:54:25;;;;;;;22.40;9.03;;;;;;;7.55;64.34;101795.50;1720009;83;25742;-58
2022/05/05 03:56:52;;;;;;;8.63;4.25;;;;;;;7.59;64.20;101791.70;1722930;83;27508;-57
2022/05/05 03:59:18;;;;;;;23.75;5.28;;;;;;;7.65;63.93;101794.49;1722698;82;25677;-57
2022/05/05 04:01:45;;;;;;;9.23;3.83;;;;;;;7.67;63.65;101797.91;1707648;83;25707;-58
2022/05/05 04:04:12;;;;;;;22.20;4.72;;;;;;;7.71;63.49;101802.64;1723437;82;25883;-58
2022/05/05 04:06:39;;;;;;;15.35;5.83;;;;;;;7.76;63.19;101801.88;1723542;83;25738;-58
2022/05/05 04:09:06;;;;;;;16.00;4.40;;;;;;;7.77;63.01;101803.59;1723403;82;27522;-57
2022/05/05 04:11:34;;;;;;;18.35;5.40;;;;;;;7.84;62.66;101804.95;1723242;83;25695;-56
2022/05/05 04:14:01;;;;;;;19.73;4.85;;;;;;;7.91;62.60;101811.65;1739353;81;25739;-56
2022/05/05 04:16:28;;;;;;;13.05;4.70;;;;;;;7.98;62.32;101811.66;1741718;82;26587;-57
2022/05/05 04:18:55;;;;;;;18.42;4.50;;;;;;;8.01;62.11;101815.99;1745506;81;25788;-57
2022/05/05 04:21:22;;;;;;;17.82;5.00;;;;;;;8.03;61.56;101812.72;1746045;81;27474;-57
2022/05/05 04:23:49;;;;;;;9.23;5.22;;;;;;;8.03;60.93;101811.87;1744329;81;25787;-57
2022/05/05 04:26:17;;;;;;;15.20;4.70;;;;;;;8.01;60.55;101820.02;1744886;81;25841;-57
2022/05/05 04:28:47;;;;;;;12.78;4.87;;;;;;;8.02;60.33;101827.56;1741330;81;26493;-57
2022/05/05 04:31:16;;;;;;;18.45;4.95;;;;;;;8.08;60.33;101822.69;1753274;81;25755;-56
2022/05/05 04:33:44;;;;;;;17.23;5.92;;;;;;;8.17;60.23;101824.42;1778184;80;28170;-59
2022/05/05 04:36:14;;;;;;;17.62;4.85;;;;;;;8.25;59.85;101820.78;1751973;80;25755;-57
2022/05/05 04:38:42;;;;;;;13.32;4.37;;;;;;;8.32;59.80;101827.97;1747758;82;25755;-57
2022/05/05 04:41:08;;;;;;;12.35;5.12;;;;;;;8.36;59.30;101829.48;1747986;81;26408;-56
2022/05/05 04:43:35;;;;;;;15.98;4.92;;;;;;;8.43;59.10;101828.14;1747686;82;25819;-58
2022/05/05 04:46:03;;;;;;;14.98;5.30;;;;;;;8.53;58.87;101829.81;1747868;82;27445;-57
2022/05/05 04:48:30;;;;;;;13.72;4.03;;;;;;;8.57;58.32;101832.67;1748040;82;25827;-57
2022/05/05 04:50:57;;;;;;;9.93;4.33;;;;;;;8.62;58.23;101823.87;1773486;79;25840;-58
2022/05/05 04:53:24;;;;;;;9.23;3.20;;;;;;;8.70;58.14;101830.07;1780949;79;25778;-57
2022/05/05 04:55:51;;;;;;;16.52;4.20;;;;;;;8.74;56.22;101832.45;1780894;79;25842;-57
2022/05/05 04:58:17;;;;;;;6.58;3.52;;;;;;;8.80;56.26;101830.36;1781080;80;28253;-57
2022/05/05 05:00:46;;;;;;;8.50;3.33;;;;;;;8.87;56.66;101835.70;1780745;80;25461;-57
2022/05/05 05:03:32;;;;;;;11.95;3.33;;;;;;;8.93;57.08;101838.86;1781129;79;25695;-57
2022/05/05 05:05:41;;;;;;;10.28;3.12;;;;;;;8.97;56.57;101842.67;1780232;80;25861;-57
2022/05/05 05:08:08;;;;;;;13.90;3.15;;;;;;;8.99;56.08;101848.34;1781012;80;25671;-57
2022/05/05 05:10:35;;;;;;;13.25;3.10;;;;;;;9.01;55.70;101846.40;1781102;79;27421;-57
2022/05/05 05:13:02;;;;;;;9.83;2.70;;;;;;;9.02;55.00;101846.78;1713408;82;25697;-57
2022/05/05 05:15:29;;;;;;;11.05;3.45;;;;;;;9.06;54.39;101846.98;1702459;82;25730;-57
2022/05/05 05:17:55;;;;;;;7.53;3.10;;;;;;;9.11;54.01;101847.14;1702485;84;25865;-57
2022/05/05 05:20:24;;;;;;;7.83;3.50;;;;;;;9.15;53.97;101855.39;1702389;82;25813;-57
2022/05/05 05:22:51;;;;;;;7.62;3.25;;;;;;;9.17;54.33;101858.34;1702415;84;27480;-58
2022/05/05 05:25:19;;;;;;;9.18;3.52;;;;;;;9.22;54.24;101854.02;1702221;84;27150;-58
2022/05/05 05:27:46;;;;;;;10.00;2.65;;;;;;;9.28;54.15;101852.27;1702434;84;25773;-58
2022/05/05 05:30:13;;;;;;;9.10;2.95;;;;;;;9.33;53.95;101850.16;1702278;84;25832;-57
2022/05/05 05:32:40;;;;;;;13.15;3.37;;;;;;;9.40;53.83;101856.84;1729510;81;25787;-57
2022/05/05 05:35:08;;;;;;;10.53;3.17;;;;;;;9.48;53.68;101854.99;1759846;80;27694;-57
2022/05/05 05:37:35;;;;;;;11.48;3.37;;;;;;;9.54;53.50;101857.26;1759762;81;25694;-57
2022/05/05 05:40:04;;;;;;;11.30;3.62;;;;;;;9.60;53.36;101862.70;1759737;80;25790;-57
2022/05/05 05:42:30;;;;;;;12.25;3.20;;;;;;;9.66;53.20;101863.63;1759861;81;25798;-57
2022/05/05 05:44:57;;;;;;;35.63;13.83;;;;;;;9.73;53.23;101857.36;1766016;81;25537;-58
2022/05/05 05:47:24;;;;;;;19.20;4.72;;;;;;;9.82;52.98;101864.80;1759876;81;29724;-56
2022/05/05 05:49:51;;;;;;;10.60;5.60;;;;;;;9.89;52.68;101860.34;1762416;80;25828;-56
2022/05/05 05:52:18;;;;;;;13.48;2.90;;;;;;;9.96;51.87;101864.33;1767367;81;25743;-57
2022/05/05 05:54:44;;;;;;;9.73;3.17;;;;;;;10.01;51.60;101859.52;1767634;80;26764;-58
2022/05/05 05:57:11;;;;;;;12.55;3.20;;;;;;;10.08;51.56;101868.02;1767575;81;25687;-57
2022/05/05 05:59:38;;;;;;;10.63;4.37;;;;;;;10.16;51.09;101863.81;1767517;81;27428;-56
2022/05/05 06:04:50;;;;;;;9.15;3.50;;;;;;;10.30;49.48;101872.27;1705996;84;25741;-58
2022/05/05 06:07:17;;;;;;;7.47;3.35;;;;;;;10.39;49.44;101872.62;1706153;83;25850;-57
2022/05/05 06:09:43;;;;;;;8.40;3.05;;;;;;;10.47;48.64;101872.94;1706469;83;25758;-57
2022/05/05 06:12:11;;;;;;;10.05;2.58;;;;;;;10.55;48.48;101871.06;1706103;83;27479;-57
2022/05/05 06:14:38;;;;;;;12.55;2.75;;;;;;;10.62;48.25;101866.95;1731073;81;25759;-56
2022/05/05 06:17:05;;;;;;;17.00;3.20;;;;;;;10.69;47.77;101866.89;1735255;82;25724;-58
2022/05/05 06:19:32;;;;;;;7.85;2.58;;;;;;;10.77;47.95;101873.08;1735558;81;25752;-57
2022/05/05 06:21:58;;;;;;;14.18;2.95;;;;;;;10.84;47.44;101880.23;1735323;82;25844;-57
2022/05/05 06:24:25;;;;;;;6.17;2.62;;;;;;;10.89;46.73;101876.71;1735134;82;28439;-57
2022/05/05 06:26:52;;;;;;;9.93;2.90;;;;;;;10.94;46.18;101873.19;1735286;82;25621;-57
2022/05/05 06:29:19;;;;;;;6.83;2.92;;;;;;;11.01;46.44;101877.64;1735448;82;25719;-58
2022/05/05 06:31:46;;;;;;;14.03;3.05;;;;;;;11.05;45.20;101877.81;1739047;80;25828;-57
2022/05/05 06:34:12;;;;;;;9.70;2.85;;;;;;;11.11;45.65;101883.61;1774899;80;25754;-58
2022/05/05 06:36:39;;;;;;;12.80;2.95;;;;;;;11.19;44.21;101888.42;1775018;80;27460;-58
2022/05/05 06:39:06;;;;;;;3.42;2.50;;;;;;;11.25;43.62;101893.34;1753707;80;25486;-57
2022/05/05 06:41:34;;;;;;;14.93;2.80;;;;;;;11.33;44.19;101887.90;1738128;82;25752;-58
2022/05/05 06:44:01;;;;;;;9.73;2.70;;;;;;;11.41;44.41;101892.23;1737911;82;25789;-58
2022/05/05 06:46:29;;;;;;;8.15;2.33;;;;;;;11.49;44.09;101885.78;1737855;82;25831;-57
2022/05/05 06:48:56;;;;;;;12.25;2.72;;;;;;;11.58;44.03;101891.83;1738013;82;28478;-58
2022/05/05 06:51:23;;;;;;;20.50;3.00;;;;;;;11.68;44.06;101891.98;1773091;80;25802;-57
2022/05/05 06:53:49;;;;;;;4.75;2.12;;;;;;;11.77;44.04;101892.25;1775249;80;25462;-58
2022/05/05 06:56:16;;;;;;;8.68;2.95;;;;;;;11.83;43.03;101891.31;1774965;80;25794;-56
2022/05/05 06:58:43;;;;;;;8.60;2.92;;;;;;;11.90;43.10;101893.90;1774719;80;26321;-57
2022/05/05 07:06:24;;;;;;;13.13;2.67;;;;;;;12.16;41.87;101891.06;1695521;83;25876;-56
2022/05/05 07:11:36;;;;;;;9.35;2.52;;;;;;;12.35;41.94;101893.20;1714032;83;25741;-56
2022/05/05 07:14:03;;;;;;;11.97;2.92;;;;;;;12.45;41.11;101902.77;1722006;82;28201;-57
2022/05/05 07:16:30;;;;;;;10.88;3.15;;;;;;;12.49;40.90;101900.21;1730192;82;25721;-57
2022/05/05 07:18:56;;;;;;;5.95;2.95;;;;;;;12.54;40.09;101902.55;1730263;82;25731;-56
2022/05/05 07:21:23;;;;;;;29.27;3.52;;;;;;;12.64;40.97;101899.97;1730239;81;25941;-57
2022/05/05 07:23:50;;;;;;;11.88;3.25;;;;;;;12.73;40.47;101901.93;1730068;82;25539;-57
2022/05/05 07:26:17;;;;;;;5.75;3.02;;;;;;;12.80;40.22;101907.20;1730685;82;27470;-58
2022/05/05 07:28:43;;;;;;;5.08;2.33;;;;;;;12.90;40.64;101895.19;1730101;82;25708;-56
2022/05/05 07:31:10;;;;;;;14.75;3.08;;;;;;;12.97;40.13;101900.92;1730563;81;25565;-57
2022/05/05 07:33:37;;;;;;;7.05;2.50;;;;;;;13.07;40.31;101905.11;1758274;81;25811;-57
2022/05/05 07:36:06;;;;;;;12.65;2.90;;;;;;;13.22;40.21;101908.41;1762811;81;25713;-57
2022/05/05 07:38:33;;;;;;;7.28;2.40;;;;;;;13.35;39.78;101902.85;1762663;81;27481;-57
2022/05/05 07:41:00;;;;;;;13.93;2.35;;;;;;;13.45;40.16;101906.52;1762486;81;25719;-58
2022/05/05 07:43:26;;;;;;;11.83;2.60;;;;;;;13.52;39.26;101900.11;1762524;81;25800;-57
2022/05/05 07:45:53;;;;;;;9.65;2.70;;;;;;;13.59;39.34;101906.24;1762758;81;26661;-57
2022/05/05 07:48:21;;;;;;;9.98;2.37;;;;;;;13.69;39.17;101902.27;1762173;81;27313;-57
2022/05/05 07:50:47;;;;;;;7.00;2.72;;;;;;;13.79;39.02;101905.06;1769985;80;27533;-57
2022/05/05 07:53:16;;;;;;;14.53;2.60;;;;;;;13.85;39.16;101901.83;1772996;80;25762;-57
2022/05/05 07:55:43;;;;;;;4.50;2.37;;;;;;;13.89;37.10;101904.66;1773126;80;25803;-57
2022/05/05 07:58:09;;;;;;;9.75;2.50;;;;;;;13.95;37.31;101905.95;1773302;80;25515;-58
2022/05/05 08:00:36;;;;;;;5.95;2.47;;;;;;;14.06;37.00;101915.88;1772987;80;25729;-58
2022/05/05 08:03:03;;;;;;;10.93;2.50;;;;;;;14.18;36.64;101905.34;1730306;82;27562;-58
2022/05/05 08:05:30;;;;;;;9.20;2.50;;;;;;;14.32;36.59;101901.95;1729834;82;25772;-57
2022/05/05 08:07:57;;;;;;;7.37;2.20;;;;;;;14.50;36.82;101906.23;1730236;82;25749;-56
2022/05/05 08:10:27;;;;;;;11.50;3.05;;;;;;;14.66;37.02;101905.77;1730059;82;25796;-57
2022/05/05 08:12:52;;;;;;;13.18;2.40;;;;;;;14.82;36.64;101910.72;1730062;82;25852;-58
2022/05/05 08:15:19;;;;;;;8.75;2.72;;;;;;;14.91;36.05;101907.19;1730163;81;27486;-58
2022/05/05 08:17:48;;;;;;;10.82;2.27;;;;;;;15.06;35.44;101912.22;1730066;81;25526;-58
2022/05/05 08:20:16;;;;;;;10.25;2.47;;;;;;;15.18;35.66;101903.84;1730081;82;25697;-57
2022/05/05 08:22:43;;;;;;;8.90;3.12;;;;;;;15.31;35.67;101900.87;1730206;82;26557;-57
2022/05/05 08:30:40;;;;;;;10.78;2.62;;;;;;;15.74;34.68;101893.83;1730197;82;25777;-56
2022/05/05 08:33:07;;;;;;;6.12;2.25;;;;;;;15.92;34.19;101889.95;1725525;82;25936;-57
2022/05/05 08:35:35;;;;;;;16.02;2.55;;;;;;;16.07;34.72;101891.72;1723111;83;25850;-57
2022/05/05 08:38:01;;;;;;;14.23;2.30;;;;;;;16.20;34.25;101890.89;1723184;83;25698;-57
2022/05/05 08:40:29;;;;;;;9.75;2.75;;;;;;;16.39;34.22;101894.58;1723157;82;28330;-57
2022/05/05 08:42:56;;;;;;;8.83;2.80;;;;;;;16.55;33.56;101895.32;1722953;82;25805;-57
2022/05/05 08:45:23;;;;;;;13.08;3.10;;;;;;;16.60;32.53;101901.15;1728511;81;25829;-56
2022/05/05 08:47:54;;;;;;;9.48;2.50;;;;;;;16.74;32.28;101896.61;1733996;81;25792;-57
2022/05/05 08:50:24;;;;;;;7.28;2.45;;;;;;;16.87;31.08;101892.19;1749145;81;25826;-57
2022/05/05 08:52:52;;;;;;;18.12;3.15;;;;;;;16.92;31.47;101891.73;1762959;80;27528;-57
2022/05/05 08:55:21;;;;;;;16.25;2.95;;;;;;;17.11;31.91;101898.11;1762360;80;25807;-58
2022/05/05 08:57:48;;;;;;;7.78;2.72;;;;;;;17.30;31.36;101898.48;1762507;81;25483;-57
2022/05/05 09:00:17;;;;;;;14.45;2.90;;;;;;;17.50;31.55;101898.72;1762312;81;25812;-57
2022/05/05 09:02:44;;;;;;;6.20;2.65;;;;;;;17.68;30.68;101900.06;1762921;81;26145;-57
2022/05/05 09:05:12;;;;;;;9.68;2.80;;;;;;;17.85;30.65;101894.77;1762510;81;27472;-58
2022/05/05 09:07:51;;;;;;;7.60;2.77;;;;;;;18.08;30.14;101895.67;1762739;81;25760;-58
2022/05/05 09:10:22;;;;;;;15.23;2.75;;;;;;;18.19;28.66;101895.42;1762555;81;25788;-59
2022/05/05 09:13:01;;;;;;;5.03;2.35;;;;;;;18.35;29.53;101897.39;1768610;81;26730;-56
2022/05/05 09:15:34;;;;;;;5.58;2.58;;;;;;;18.67;28.25;101890.44;1770627;80;25766;-57
2022/05/05 09:18:20;;;;;;;5.25;2.10;;;;;;;18.91;28.90;101897.01;1773310;80;27333;-57
2022/05/05 09:20:49;;;;;;;8.13;2.05;;;;;;;19.25;28.11;101893.40;1773247;79;25747;-58
2022/05/05 09:26:27;;;;;;;6.30;2.00;;;;;;;20.21;26.70;101882.94;1773472;80;25755;-58
2022/05/05 09:28:56;;;;;;;11.45;2.02;;;;;;;20.77;25.90;101884.84;1773165;79;25805;-58
2022/05/05 09:31:23;;;;;;;4.62;1.90;;;;;;;21.28;23.97;101885.80;1773335;79;27386;-59
2022/05/05 09:33:50;;;;;;;5.37;1.50;;;;;;;21.62;22.88;101887.84;1743949;80;25668;-58
2022/05/05 09:36:28;;;;;;;12.65;1.72;;;;;;;;;;1742946;82;25827;-58
2022/05/05 09:39:02;;;;;;;5.00;2.55;;;;;;;22.35;22.46;101889.59;1742731;82;26142;-58
2022/05/05 09:41:36;;;;;;;7.00;1.77;;;;;;;22.70;22.58;101886.30;1742787;82;25524;-58
2022/05/05 09:44:16;;;;;;;10.23;1.85;;;;;;;23.09;21.97;101888.71;1741617;81;27443;-58
2022/05/05 09:46:43;;;;;;;5.65;1.67;;;;;;;23.41;22.06;101886.59;1742581;82;25839;-58
2022/05/05 09:49:14;;;;;;;8.20;2.58;;;;;;;23.99;22.17;101880.17;1741935;81;25724;-58
2022/05/05 09:51:45;;;;;;;11.80;1.77;;;;;;;24.22;19.94;101881.30;1723480;83;25778;-57
2022/05/05 09:59:51;;;;;;;4.58;1.32;;;;;;;24.63;19.87;101885.70;1723529;83;25780;-58
2022/05/05 10:05:22;;;;;;;7.60;1.50;;;;;;;25.30;18.92;101872.23;1737937;82;25818;-57
2022/05/05 10:07:52;;;;;;;8.43;1.35;;;;;;;25.72;18.47;101871.61;1737575;82;25995;-58
2022/05/05 10:10:19;;;;;;;8.20;1.42;;;;;;;26.06;18.28;101877.09;1738204;82;28132;-58
2022/05/05 10:12:49;;;;;;;15.32;1.57;;;;;;;26.69;19.01;101871.59;1737450;82;26220;-58
2022/05/05 10:15:16;;;;;;;19.32;1.70;;;;;;;27.15;17.65;101864.22;1733761;82;25542;-57
2022/05/05 10:17:45;;;;;;;5.75;1.32;;;;;;;27.55;17.93;101864.53;1730335;82;26573;-57
2022/05/05 10:20:14;;;;;;;10.75;2.25;;;;;;;27.90;16.59;101862.66;1730704;82;25819;-57
2022/05/05 10:22:52;;;;;;;15.68;1.82;;;;;;;27.83;16.89;101859.11;1730130;82;27545;-57
2022/05/05 10:25:27;;;;;;;14.87;2.17;;;;;;;27.92;16.83;101864.66;1727866;82;25775;-57
2022/05/05 10:27:55;;;;;;;6.35;1.62;;;;;;;27.95;16.58;101866.44;1730082;82;25788;-57
2022/05/05 10:30:34;;;;;;;3.20;1.30;;;;;;;28.01;16.46;101869.35;1730771;82;25807;-57
2022/05/05 10:33:04;;;;;;;9.00;1.15;;;;;;;28.33;16.46;101867.37;1758867;80;25920;-58
2022/05/05 10:35:45;;;;;;;4.25;1.42;;;;;;;28.84;16.95;101863.08;1777997;80;27507;-57
2022/05/05 10:38:43;;;;;;;3.90;1.32;;;;;;;29.26;16.54;101854.86;1777718;80;25699;-58
2022/05/05 10:41:37;;;;;;;11.63;1.60;;;;;;;29.78;15.70;101852.88;1782017;79;25809;-58
2022/05/05 10:44:22;;;;;;;17.17;1.67;;;;;;;30.16;15.44;101852.67;1777925;80;25859;-58
2022/05/05 10:47:05;;;;;;;6.62;1.22;;;;;;;30.47;13.66;101852.83;1759270;80;25828;-58
2022/05/05 10:49:41;;;;;;;2.93;1.17;;;;;;;30.10;15.30;101853.09;1747864;80;28246;-59
2022/05/05 10:52:23;;;;;;;16.65;1.75;;;;;;;29.81;14.59;101853.79;1777684;80;25490;-57
2022/05/05 10:54:54;;;;;;;8.95;1.62;;;;;;;30.16;14.96;101852.67;1777917;80;25732;-58
2022/05/05 10:57:32;;;;;;;5.70;1.32;;;;;;;30.40;14.15;101856.28;1777902;80;25774;-58
2022/05/05 11:00:20;;;;;;;6.53;1.37;;;;;;;30.04;13.79;101854.91;1777965;80;25640;-58
2022/05/05 11:03:10;;;;;;;3.02;1.40;;;;;;;29.76;14.45;101853.67;1746744;80;27474;-58
2022/05/05 11:05:39;;;;;;;7.65;1.35;;;;;;;30.06;14.77;101847.75;1743532;82;27195;-58
2022/05/05 11:08:19;;;;;;;4.35;1.40;;;;;;;30.40;14.77;101841.84;1743399;82;25743;-58
2022/05/05 11:13:43;;;;;;;12.23;1.30;;;;;;;31.30;14.77;101844.23;1743864;82;25731;-58
2022/05/05 11:22:25;;;;;;;1.65;1.00;;;;;;;32.09;13.26;101835.55;1732890;82;25786;-58
2022/05/05 11:24:53;;;;;;;10.05;1.42;;;;;;;32.49;12.77;101834.17;1732531;82;25786;-58
2022/05/05 11:27:23;;;;;;;6.65;1.27;;;;;;;32.76;12.90;101828.11;1733033;81;26450;-58
2022/05/05 11:29:55;;;;;;;24.85;2.12;;;;;;;33.14;12.14;101826.00;1735479;81;28315;-59
2022/05/05 11:32:32;;;;;;;7.30;1.25;;;;;;;33.07;12.56;101826.23;1737329;82;25795;-58
2022/05/05 11:35:00;;;;;;;5.62;1.00;;;;;;;33.08;12.56;101832.11;1732934;82;25816;-59
2022/05/05 11:37:29;;;;;;;6.55;1.60;;;;;;;33.45;12.25;101829.13;1739808;82;25883;-59
2022/05/05 11:39:59;;;;;;;5.97;1.60;;;;;;;33.39;12.03;101822.12;1739798;81;25808;-58
2022/05/05 11:42:28;;;;;;;7.97;1.30;;;;;;;33.32;11.62;101813.64;1739692;82;27458;-58
2022/05/05 11:44:55;;;;;;;5.53;1.00;;;;;;;33.13;11.68;101814.02;1739846;82;26172;-57
2022/05/05 11:47:23;;;;;;;5.25;1.20;;;;;;;32.71;12.56;101822.45;1739912;81;25789;-57
2022/05/05 11:49:52;;;;;;;4.45;1.25;;;;;;;32.93;12.05;101824.42;1753319;80;26558;-57
2022/05/05 11:52:25;;;;;;;7.80;1.60;;;;;;;33.22;11.66;101815.77;1788481;80;25820;-58
2022/05/05 11:54:56;;;;;;;6.72;1.10;;;;;;;33.23;11.54;101819.70;1788176;80;28972;-58
2022/05/05 11:57:40;;;;;;;6.20;1.20;;;;;;;33.55;11.90;101812.48;1788439;79;25847;-58
2022/05/05 12:02:57;;;;;;;10.45;1.72;;;;;;;34.32;11.65;101810.75;1788324;79;25875;-58
2022/05/05 12:05:25;;;;;;;8.00;1.25;;;;;;;34.68;10.45;101808.67;1788761;80;25798;-58
2022/05/05 12:07:54;;;;;;;10.15;1.65;;;;;;;34.45;10.84;101805.25;1788360;79;28305;-59
2022/05/05 12:10:24;;;;;;;12.58;2.20;;;;;;;34.31;10.74;101802.09;1788460;80;25798;-59
2022/05/05 12:12:52;;;;;;;9.15;1.82;;;;;;;34.09;10.84;101793.31;1788426;80;25735;-58
2022/05/05 12:15:23;;;;;;;3.83;1.27;;;;;;;34.14;10.87;101796.16;1788714;80;26788;-58
2022/05/05 12:17:57;;;;;;;4.30;1.15;;;;;;;34.63;11.06;101790.79;1789243;80;25707;-58
2022/05/05 12:20:22;;;;;;;7.58;1.22;;;;;;;35.15;11.16;101796.50;1789037;79;27555;-58
2022/05/05 12:22:59;;;;;;;11.43;1.37;;;;;;;35.72;9.96;101796.52;1788646;80;27297;-59